Time;durP1;ratioP1;P1;durP2;ratioP2;P2;SDS_P1;SDS_P2;PMS_P1;PMS_P2;Temp;Humidity;BMP_temperature;BMP_pressure;BME280_temperature;BME280_humidity;BME280_pressure;Samples;Min_cycle;Max_cycle;Signal;HPM_P1;HPM_P2
2023/03/03 00:01:24;;;;;;;37.88;11.98;;;;;;;-144.47;100.00;53114.31;5071170;28;20031;-67
2023/03/03 00:03:49;;;;;;;35.15;11.88;;;;;;;-144.47;100.00;53078.53;5071413;28;20097;-68
2023/03/03 00:06:15;;;;;;;26.13;10.98;;;;;;;-144.47;100.00;53064.66;5070673;28;20497;-67
2023/03/03 00:08:41;;;;;;;31.80;11.35;;;;;;;-144.47;100.00;53098.41;5074552;28;20028;-69
2023/03/03 00:11:07;;;;;;;40.05;11.93;;;;;;;-144.47;100.00;53092.44;5073194;28;20273;-66
2023/03/03 00:13:43;;;;;;;32.63;10.63;;;;;;;-144.47;100.00;53078.53;5065343;28;20383;-65
2023/03/03 00:16:26;;;;;;;24.17;10.68;;;;;;;-144.47;100.00;53098.41;5039732;28;20478;-67
2023/03/03 00:18:52;;;;;;;28.08;9.23;;;;;;;-144.47;100.00;53048.75;5063450;28;20036;-67
2023/03/03 00:21:25;;;;;;;26.80;10.30;;;;;;;-144.47;100.00;53106.34;5076517;28;20119;-67
2023/03/03 00:23:51;;;;;;;23.45;8.27;;;;;;;-144.47;100.00;53084.50;5067398;28;20174;-66
2023/03/03 00:26:25;;;;;;;26.95;9.75;;;;;;;-144.47;100.00;53086.50;5070589;28;20028;-68
2023/03/03 00:28:55;;;;;;;26.95;10.00;;;;;;;-144.47;100.00;53090.47;5053002;28;20116;-68
2023/03/03 00:31:32;;;;;;;34.88;11.05;;;;;;;-144.47;100.00;53078.53;5071166;28;20162;-66
2023/03/03 00:34:23;;;;;;;29.67;10.60;;;;;;;-144.47;100.00;53074.56;5070719;28;20043;-67
2023/03/03 00:36:52;;;;;;;39.80;9.50;;;;;;;-144.47;100.00;53094.44;5061116;28;20021;-66
2023/03/03 00:39:29;;;;;;;28.80;9.18;;;;;;;-144.47;100.00;53076.56;5085387;28;20511;-66
2023/03/03 00:41:59;;;;;;;30.85;10.02;;;;;;;-144.47;100.00;53074.56;5058924;28;20021;-68
2023/03/03 00:44:40;;;;;;;34.10;11.25;;;;;;;-144.47;100.00;53086.50;5069996;28;20048;-67
2023/03/03 00:47:26;;;;;;;45.30;11.80;;;;;;;-144.47;100.00;53110.31;5045136;28;20032;-67
2023/03/03 00:49:53;;;;;;;22.77;10.57;;;;;;;-144.47;100.00;53108.34;5057137;28;20089;-66
2023/03/03 00:52:19;;;;;;;34.17;9.75;;;;;;;-144.47;100.00;53100.41;5070711;28;20407;-66
2023/03/03 00:54:45;;;;;;;31.10;9.77;;;;;;;-144.47;100.00;53074.56;5070675;28;20021;-69
2023/03/03 00:57:14;;;;;;;30.15;9.48;;;;;;;-144.47;100.00;53070.59;5050436;28;20020;-66
2023/03/03 00:59:40;;;;;;;33.25;10.05;;;;;;;-144.47;100.00;53066.63;5068493;28;20028;-69
2023/03/03 01:02:06;;;;;;;20.63;8.52;;;;;;;-144.47;100.00;53100.41;5060860;28;20574;-67
2023/03/03 01:04:32;;;;;;;22.45;9.68;;;;;;;-144.47;100.00;53106.34;5069891;28;20027;-65
2023/03/03 01:06:57;;;;;;;22.20;9.93;;;;;;;-144.47;100.00;53110.31;5065520;28;20020;-67
2023/03/03 01:09:22;;;;;;;45.08;9.57;;;;;;;-144.47;100.00;53094.44;5079592;28;20101;-65
2023/03/03 01:11:49;;;;;;;35.85;9.70;;;;;;;-144.47;100.00;53086.50;5074157;28;20025;-66
2023/03/03 01:14:15;;;;;;;33.33;10.82;;;;;;;-144.47;100.00;53082.53;5073261;28;20032;-66
2023/03/03 01:16:40;;;;;;;25.52;9.88;;;;;;;-144.47;100.00;53110.31;5069990;28;20025;-66
2023/03/03 01:19:06;;;;;;;32.60;9.75;;;;;;;-144.47;100.00;53094.44;5073087;28;20520;-67
2023/03/03 01:21:32;;;;;;;26.80;9.45;;;;;;;-144.47;100.00;53104.38;5074065;28;20032;-65
2023/03/03 01:23:57;;;;;;;29.98;11.00;;;;;;;-144.47;100.00;53076.56;5065838;28;20035;-67
2023/03/03 01:26:22;;;;;;;26.05;10.13;;;;;;;-144.47;100.00;53098.41;5070412;28;20124;-69
2023/03/03 01:28:48;;;;;;;27.60;10.63;;;;;;;-144.47;100.00;53102.38;5066675;28;20047;-68
2023/03/03 01:31:13;;;;;;;27.10;10.07;;;;;;;-144.47;100.00;53100.41;5072475;28;20585;-65
2023/03/03 01:33:39;;;;;;;26.70;9.40;;;;;;;-144.47;100.00;53090.47;5058893;28;20134;-68
2023/03/03 01:36:04;;;;;;;24.95;9.75;;;;;;;-144.47;100.00;53104.38;5071043;28;20474;-68
2023/03/03 01:38:30;;;;;;;28.15;9.82;;;;;;;-144.47;100.00;53084.50;5057277;28;20043;-65
2023/03/03 01:40:58;;;;;;;24.50;10.57;;;;;;;-144.47;100.00;53132.19;5070526;28;20180;-67
2023/03/03 01:43:27;;;;;;;27.48;10.27;;;;;;;-144.47;100.00;53094.44;5061898;28;20028;-66
2023/03/03 01:45:52;;;;;;;26.70;9.60;;;;;;;-144.47;100.00;53106.34;5064906;28;20021;-66
2023/03/03 01:48:35;;;;;;;31.85;10.68;;;;;;;-144.47;100.00;53082.53;5069958;28;20058;-67
2023/03/03 01:51:16;;;;;;;24.73;10.38;;;;;;;-144.47;100.00;53072.59;5051435;28;20047;-68
2023/03/03 01:53:45;;;;;;;21.90;8.95;;;;;;;-144.47;100.00;53078.53;5071088;28;20032;-68
2023/03/03 01:56:10;;;;;;;22.77;9.70;;;;;;;-144.47;100.00;53070.59;5071165;28;20100;-67
2023/03/03 01:58:40;;;;;;;39.90;9.95;;;;;;;-144.47;100.00;53090.47;5070842;28;20035;-65
2023/03/03 02:01:12;;;;;;;26.20;10.27;;;;;;;-144.47;100.00;53072.59;5066403;28;20051;-65
2023/03/03 02:03:38;;;;;;;27.73;10.63;;;;;;;-144.47;100.00;53110.31;5055394;28;20128;-67
2023/03/03 02:06:08;;;;;;;29.50;10.73;;;;;;;-144.47;100.00;53064.66;5069543;28;20123;-67
2023/03/03 02:08:44;;;;;;;23.65;10.20;;;;;;;-144.47;100.00;53080.53;5070054;28;20096;-68
2023/03/03 02:11:09;;;;;;;28.35;9.95;;;;;;;-144.47;100.00;53074.56;5070334;28;20112;-65
2023/03/03 02:13:35;;;;;;;30.58;10.77;;;;;;;-144.47;100.00;53086.50;5069949;28;20040;-67
2023/03/03 02:16:01;;;;;;;25.00;10.32;;;;;;;-144.47;100.00;53106.34;5066066;28;20028;-67
2023/03/03 02:18:27;;;;;;;26.85;9.20;;;;;;;-144.47;100.00;53058.69;5068019;28;20108;-67
2023/03/03 02:20:52;;;;;;;24.65;9.68;;;;;;;-144.47;100.00;53106.34;5078000;28;20024;-68
2023/03/03 02:23:52;;;;;;;30.63;10.45;;;;;;;-144.47;100.00;53104.38;5065070;28;20041;-67
2023/03/03 02:26:21;;;;;;;25.35;10.23;;;;;;;-144.47;100.00;53100.41;5053476;28;20505;-68
2023/03/03 02:28:48;;;;;;;19.00;8.60;;;;;;;-144.47;100.00;53110.31;5070613;28;20159;-65
2023/03/03 02:31:18;;;;;;;20.08;8.48;;;;;;;-144.47;100.00;53098.41;5072493;28;20457;-65
2023/03/03 02:33:47;;;;;;;15.75;7.35;;;;;;;-144.47;100.00;53086.50;5066677;28;20187;-66
2023/03/03 02:36:17;;;;;;;22.65;9.68;;;;;;;-144.47;100.00;53126.22;5067434;28;20510;-66
2023/03/03 02:38:50;;;;;;;23.35;9.35;;;;;;;-144.47;100.00;53104.38;5063048;28;20055;-68
2023/03/03 02:41:39;;;;;;;25.85;9.45;;;;;;;-144.47;100.00;53086.50;5045230;28;20225;-66
2023/03/03 02:44:06;;;;;;;25.58;9.75;;;;;;;-144.47;100.00;53106.34;5068103;28;20032;-68
2023/03/03 02:46:36;;;;;;;22.35;8.63;;;;;;;-144.47;100.00;53106.34;5064696;28;20033;-67
2023/03/03 02:49:03;;;;;;;23.15;9.20;;;;;;;-144.47;100.00;53074.56;5061436;28;20123;-67
2023/03/03 02:51:29;;;;;;;18.63;8.73;;;;;;;-144.47;100.00;53076.56;5068543;28;20195;-67
2023/03/03 02:53:54;;;;;;;29.95;9.55;;;;;;;-144.47;100.00;53104.38;5069030;28;20338;-68
2023/03/03 02:56:20;;;;;;;20.30;9.00;;;;;;;-144.47;100.00;53080.53;5068414;28;20034;-66
2023/03/03 02:58:45;;;;;;;24.10;9.30;;;;;;;-144.47;100.00;53112.31;5068241;28;20100;-68
2023/03/03 03:01:10;;;;;;;26.35;9.35;;;;;;;-144.47;100.00;53108.34;5068004;28;20067;-67
2023/03/03 03:03:36;;;;;;;19.70;7.68;;;;;;;-144.47;100.00;53078.53;5068602;28;20570;-68
2023/03/03 03:06:02;;;;;;;22.98;9.10;;;;;;;-144.47;100.00;53090.47;5067668;28;20032;-66
2023/03/03 03:08:27;;;;;;;20.08;7.60;;;;;;;-144.47;100.00;53086.50;5072271;28;20031;-68
2023/03/03 03:10:53;;;;;;;19.92;8.38;;;;;;;-144.47;100.00;53092.44;5067216;28;20048;-66
2023/03/03 03:13:18;;;;;;;21.45;8.63;;;;;;;-144.47;100.00;53102.38;5068139;28;20454;-65
2023/03/03 03:15:45;;;;;;;20.55;8.68;;;;;;;-144.47;100.00;53096.41;5063053;28;20062;-66
2023/03/03 03:18:11;;;;;;;19.58;7.75;;;;;;;-144.47;100.00;53104.38;5059706;28;20027;-66
2023/03/03 03:20:38;;;;;;;18.67;7.75;;;;;;;-144.47;100.00;53084.50;5066653;28;20024;-68
2023/03/03 03:23:05;;;;;;;25.33;7.88;;;;;;;-144.47;100.00;53084.50;5056333;28;20056;-68
2023/03/03 03:25:30;;;;;;;19.70;6.75;;;;;;;-144.47;100.00;53098.41;5067459;28;20028;-66
2023/03/03 03:27:58;;;;;;;15.15;6.45;;;;;;;-144.47;100.00;53112.31;5067535;28;20106;-66
2023/03/03 03:30:23;;;;;;;21.45;7.13;;;;;;;-144.47;100.00;53092.44;5068522;28;20048;-66
2023/03/03 03:32:49;;;;;;;20.25;7.47;;;;;;;-144.47;100.00;53108.34;5068555;28;20104;-65
2023/03/03 03:35:16;;;;;;;26.58;6.50;;;;;;;-144.47;100.00;53110.31;5068560;28;20426;-66
2023/03/03 03:37:42;;;;;;;25.50;7.28;;;;;;;-144.47;100.00;53102.38;5071978;28;20039;-68
2023/03/03 03:40:08;;;;;;;22.60;6.57;;;;;;;-144.47;100.00;53114.31;5070984;28;20047;-69
2023/03/03 03:42:33;;;;;;;18.80;7.25;;;;;;;-144.47;100.00;53106.34;5067631;28;20031;-67
2023/03/03 03:44:59;;;;;;;17.02;7.28;;;;;;;-144.47;100.00;53098.41;5067639;28;20025;-66
2023/03/03 03:47:24;;;;;;;21.17;7.60;;;;;;;-144.47;100.00;53116.28;5044255;28;20056;-67
2023/03/03 03:49:49;;;;;;;18.95;7.47;;;;;;;-144.47;100.00;53104.38;5067487;28;20028;-67
2023/03/03 03:52:15;;;;;;;26.30;7.55;;;;;;;-144.47;100.00;53100.41;5067025;28;20507;-67
2023/03/03 03:54:40;;;;;;;14.43;6.68;;;;;;;-144.47;100.00;53114.31;5066694;28;20051;-68
2023/03/03 03:57:06;;;;;;;19.85;7.30;;;;;;;-144.47;100.00;53114.31;5061915;28;20642;-67
2023/03/03 03:59:31;;;;;;;15.02;6.50;;;;;;;-144.47;100.00;53086.50;5066457;28;20085;-66
2023/03/03 04:01:56;;;;;;;16.45;7.22;;;;;;;-144.47;100.00;53100.41;5067771;28;20033;-68
2023/03/03 04:04:22;;;;;;;13.18;5.85;;;;;;;-144.47;100.00;53070.59;5067316;28;20175;-66
2023/03/03 04:06:48;;;;;;;20.55;7.63;;;;;;;-144.47;100.00;53086.50;5063534;28;20055;-65
2023/03/03 04:09:13;;;;;;;16.15;7.43;;;;;;;-144.47;100.00;53110.31;5074665;28;20100;-67
2023/03/03 04:11:39;;;;;;;18.17;8.32;;;;;;;-144.47;100.00;53086.50;5067115;28;20029;-66
2023/03/03 04:14:04;;;;;;;18.77;6.88;;;;;;;-144.47;100.00;53100.41;5067044;28;20107;-67
2023/03/03 04:16:30;;;;;;;19.80;6.55;;;;;;;-144.47;100.00;53070.59;5066844;28;20025;-65
2023/03/03 04:18:55;;;;;;;16.15;5.50;;;;;;;-144.47;100.00;53084.50;5061752;28;20028;-68
2023/03/03 04:21:21;;;;;;;21.63;7.80;;;;;;;-144.47;100.00;53078.53;5072307;28;20111;-66
2023/03/03 04:23:46;;;;;;;21.70;7.72;;;;;;;-144.47;100.00;53136.16;5069051;28;20075;-67
2023/03/03 04:26:12;;;;;;;18.60;6.47;;;;;;;-144.47;100.00;53094.44;5066897;28;20426;-65
2023/03/03 04:28:37;;;;;;;18.10;6.97;;;;;;;-144.47;100.00;53066.63;5066103;28;20187;-66
2023/03/03 04:31:03;;;;;;;19.00;6.85;;;;;;;-144.47;100.00;53098.41;5068860;28;20504;-68
2023/03/03 04:33:28;;;;;;;13.18;5.93;;;;;;;-144.47;100.00;53102.38;5070596;28;20037;-66
2023/03/03 04:35:54;;;;;;;13.95;5.15;;;;;;;-144.47;100.00;53108.34;5071041;28;20020;-68
2023/03/03 04:38:19;;;;;;;15.10;6.22;;;;;;;-144.47;100.00;53102.38;5081432;28;20032;-66
2023/03/03 04:40:44;;;;;;;25.05;9.73;;;;;;;-144.47;100.00;53098.41;5074702;28;20036;-67
2023/03/03 04:43:10;;;;;;;38.80;11.27;;;;;;;-144.47;100.00;53068.63;5063480;28;20366;-67
2023/03/03 04:45:35;;;;;;;20.67;6.90;;;;;;;-144.47;100.00;53106.34;5070454;28;20439;-67
2023/03/03 04:48:01;;;;;;;19.90;6.25;;;;;;;-144.47;100.00;53078.53;5070026;28;20048;-68
2023/03/03 04:50:27;;;;;;;15.88;6.30;;;;;;;-144.47;100.00;53086.50;5052124;28;20127;-67
2023/03/03 04:52:52;;;;;;;11.10;5.20;;;;;;;-144.47;100.00;53080.53;5070233;28;20064;-68
2023/03/03 04:55:18;;;;;;;24.58;6.20;;;;;;;-144.47;100.00;53094.44;5055811;28;20070;-67
2023/03/03 04:57:43;;;;;;;13.05;6.22;;;;;;;-144.47;100.00;53100.41;5069000;28;20032;-67
2023/03/03 05:00:12;;;;;;;12.77;6.18;;;;;;;-144.47;100.00;53110.31;5051894;28;20024;-67
2023/03/03 05:02:38;;;;;;;11.38;4.65;;;;;;;-144.47;100.00;53084.50;5069648;28;20048;-66
2023/03/03 05:05:05;;;;;;;11.23;4.95;;;;;;;-144.47;100.00;53124.22;5065762;28;20150;-68
2023/03/03 05:07:30;;;;;;;11.20;4.10;;;;;;;-144.47;100.00;53082.53;5069853;28;20025;-68
2023/03/03 05:09:55;;;;;;;12.30;5.38;;;;;;;-144.47;100.00;53108.34;5065805;28;20593;-66
2023/03/03 05:12:21;;;;;;;12.98;4.28;;;;;;;-144.47;100.00;53110.31;5061064;28;20482;-67
2023/03/03 05:14:46;;;;;;;12.75;5.40;;;;;;;-144.47;100.00;53114.31;5063100;28;20376;-68
2023/03/03 05:17:12;;;;;;;10.45;4.78;;;;;;;-144.47;100.00;53072.59;5067216;28;20048;-68
2023/03/03 05:19:37;;;;;;;11.20;4.82;;;;;;;-144.47;100.00;53084.50;5064279;28;20416;-68
2023/03/03 05:22:02;;;;;;;14.23;5.47;;;;;;;-144.47;100.00;53090.47;5075277;28;20587;-68
2023/03/03 05:24:28;;;;;;;13.68;5.07;;;;;;;-144.47;100.00;53106.34;5069085;28;20497;-67
2023/03/03 05:26:54;;;;;;;9.93;4.55;;;;;;;-144.47;100.00;53078.53;5068173;28;20516;-69
2023/03/03 05:29:19;;;;;;;14.00;6.35;;;;;;;-144.47;100.00;53122.25;5040178;28;20025;-70
2023/03/03 05:31:44;;;;;;;13.95;6.00;;;;;;;-144.47;100.00;53062.66;5058646;28;20035;-69
2023/03/03 05:34:10;;;;;;;14.02;5.28;;;;;;;-144.47;100.00;53086.50;5068696;28;20024;-70
2023/03/03 05:36:35;;;;;;;18.50;6.10;;;;;;;-144.47;100.00;53110.31;5061661;28;20044;-68
2023/03/03 05:39:00;;;;;;;12.75;5.05;;;;;;;-144.47;100.00;53078.53;5077187;28;20162;-69
2023/03/03 05:41:26;;;;;;;12.13;4.30;;;;;;;-144.47;100.00;53092.44;5070481;28;20085;-70
2023/03/03 05:43:51;;;;;;;13.60;6.30;;;;;;;-144.47;100.00;53112.31;5065805;28;20051;-71
2023/03/03 05:46:17;;;;;;;13.40;5.40;;;;;;;-144.47;100.00;53110.31;5068322;28;20048;-69
2023/03/03 05:48:42;;;;;;;12.40;5.03;;;;;;;-144.47;100.00;53102.38;5067667;28;20104;-69
2023/03/03 05:51:08;;;;;;;13.55;5.60;;;;;;;-144.47;100.00;53086.50;5044648;28;20058;-68
2023/03/03 05:53:33;;;;;;;12.35;5.60;;;;;;;-144.47;100.00;53110.31;5066117;28;20035;-70
2023/03/03 05:55:59;;;;;;;17.13;5.30;;;;;;;-144.47;100.00;53102.38;5067542;28;20021;-68
2023/03/03 05:58:25;;;;;;;12.77;5.22;;;;;;;-144.47;100.00;53082.53;5067714;28;20362;-71
2023/03/03 06:00:50;;;;;;;9.85;4.88;;;;;;;-144.47;100.00;53086.50;5055906;28;20033;-69
2023/03/03 06:03:19;;;;;;;12.02;5.43;;;;;;;-144.47;100.00;53068.63;5071975;28;20032;-70
2023/03/03 06:05:44;;;;;;;18.10;6.72;;;;;;;-144.47;100.00;53096.41;5060472;28;20044;-69
2023/03/03 06:08:09;;;;;;;21.88;6.28;;;;;;;-144.47;100.00;53092.44;5064773;28;20053;-71
2023/03/03 06:10:35;;;;;;;12.70;5.20;;;;;;;-144.47;100.00;53094.44;5055584;28;20032;-69
2023/03/03 06:13:00;;;;;;;19.00;6.18;;;;;;;-144.47;100.00;53072.59;5051613;28;20374;-70
2023/03/03 06:15:26;;;;;;;22.30;6.68;;;;;;;-144.47;100.00;53090.47;5068296;28;20512;-69
2023/03/03 06:17:51;;;;;;;12.93;5.18;;;;;;;-144.47;100.00;53090.47;5063299;28;20377;-69
2023/03/03 06:20:16;;;;;;;15.90;6.15;;;;;;;-144.47;100.00;53080.53;5065926;28;20036;-68
2023/03/03 06:22:42;;;;;;;15.95;4.82;;;;;;;-144.47;100.00;53106.34;5068290;28;20179;-69
2023/03/03 06:25:08;;;;;;;16.60;6.43;;;;;;;-144.47;100.00;53088.47;5069382;28;20102;-71
2023/03/03 06:27:33;;;;;;;22.67;6.70;;;;;;;-144.47;100.00;53082.53;5066369;28;20028;-68
2023/03/03 06:29:59;;;;;;;14.82;6.40;;;;;;;-144.47;100.00;53092.44;5067578;28;20032;-69
2023/03/03 06:32:24;;;;;;;24.33;7.82;;;;;;;-144.47;100.00;53090.47;5068174;28;20020;-68
2023/03/03 06:34:50;;;;;;;23.77;6.95;;;;;;;-144.47;100.00;53088.47;5067107;28;20021;-68
2023/03/03 06:37:15;;;;;;;16.42;6.22;;;;;;;-144.47;100.00;53100.41;5044848;28;20553;-69
2023/03/03 06:39:40;;;;;;;15.05;6.57;;;;;;;-144.47;100.00;53066.63;5067285;28;20035;-69
2023/03/03 06:42:08;;;;;;;14.82;5.50;;;;;;;-144.47;100.00;53070.59;5058328;28;20039;-68
2023/03/03 06:44:34;;;;;;;14.13;5.03;;;;;;;-144.47;100.00;53092.44;5063241;28;20486;-69
2023/03/03 06:46:59;;;;;;;15.77;6.10;;;;;;;-144.47;100.00;53090.47;5062500;28;20040;-70
2023/03/03 06:49:25;;;;;;;14.50;5.50;;;;;;;-144.47;100.00;53094.44;5058863;28;20130;-69
2023/03/03 06:51:50;;;;;;;12.73;6.22;;;;;;;-144.47;100.00;53110.31;5067656;28;20104;-69
2023/03/03 06:54:18;;;;;;;14.55;5.53;;;;;;;-144.47;100.00;53102.38;5058581;28;20712;-70
2023/03/03 06:56:45;;;;;;;11.63;4.78;;;;;;;-144.47;100.00;53080.53;5066584;28;20021;-69
2023/03/03 06:59:20;;;;;;;15.38;5.78;;;;;;;-144.47;100.00;53082.53;5044893;28;20066;-69
2023/03/03 07:01:48;;;;;;;14.80;6.38;;;;;;;-144.47;100.00;53102.38;5056790;28;20104;-70
2023/03/03 07:04:25;;;;;;;16.10;5.70;;;;;;;-144.47;100.00;53092.44;5040334;28;20447;-69
2023/03/03 07:06:50;;;;;;;19.60;6.80;;;;;;;-144.47;100.00;53088.47;5063158;28;20027;-70
2023/03/03 07:09:27;;;;;;;20.40;6.90;;;;;;;-144.47;100.00;53090.47;5071063;28;20032;-68
2023/03/03 07:11:59;;;;;;;14.60;5.97;;;;;;;-144.47;100.00;53098.41;5074221;28;20024;-68
2023/03/03 07:14:24;;;;;;;14.60;5.57;;;;;;;-144.47;100.00;53084.50;5058401;28;20025;-70
2023/03/03 07:16:59;;;;;;;16.00;6.97;;;;;;;-144.47;100.00;53122.25;5064780;28;20099;-68
2023/03/03 07:19:33;;;;;;;15.38;6.63;;;;;;;-144.47;100.00;53050.75;5060147;28;20037;-69
2023/03/03 07:22:20;;;;;;;12.35;6.45;;;;;;;-144.47;100.00;53076.56;5065600;28;20108;-68
2023/03/03 07:24:50;;;;;;;12.38;5.85;;;;;;;-144.47;100.00;53074.56;5064830;28;20044;-65
2023/03/03 07:27:18;;;;;;;13.15;5.38;;;;;;;-144.47;100.00;53102.38;5066740;28;20621;-68
2023/03/03 07:29:46;;;;;;;17.80;6.28;;;;;;;-144.47;100.00;53064.66;5057979;28;20092;-67
2023/03/03 07:32:19;;;;;;;14.88;6.53;;;;;;;-144.47;100.00;53076.56;5061066;28;20029;-69
2023/03/03 07:34:47;;;;;;;10.93;4.68;;;;;;;-144.47;100.00;53090.47;5047181;28;20109;-67
2023/03/03 07:37:22;;;;;;;16.55;5.85;;;;;;;-144.47;100.00;53094.44;5043684;28;20074;-70
2023/03/03 07:39:50;;;;;;;14.80;5.53;;;;;;;-144.47;100.00;53074.56;5063433;28;20040;-68
2023/03/03 07:42:28;;;;;;;16.23;5.80;;;;;;;-144.47;100.00;53056.69;5063628;28;20036;-68
2023/03/03 07:44:56;;;;;;;13.50;5.40;;;;;;;-144.47;100.00;53110.31;5063927;28;20040;-70
2023/03/03 07:47:21;;;;;;;15.63;6.50;;;;;;;-144.47;100.00;53070.59;5066926;28;20086;-69
2023/03/03 07:49:49;;;;;;;18.25;5.78;;;;;;;-144.47;100.00;53074.56;5062699;28;20165;-70
2023/03/03 07:52:22;;;;;;;16.30;6.18;;;;;;;-144.47;100.00;53074.56;5059175;28;20554;-69
2023/03/03 07:54:48;;;;;;;15.93;6.72;;;;;;;-144.47;100.00;53086.50;5058903;28;20029;-70
2023/03/03 07:57:16;;;;;;;17.95;6.93;;;;;;;-144.47;100.00;53076.56;5061726;28;20055;-69
2023/03/03 07:59:47;;;;;;;12.57;5.75;;;;;;;-144.47;100.00;53082.53;5066576;28;20021;-70
2023/03/03 08:02:44;;;;;;;16.58;6.38;;;;;;;-144.47;100.00;53088.47;5066329;28;20029;-70
2023/03/03 08:05:39;;;;;;;16.98;5.88;;;;;;;-144.47;100.00;53094.44;5066466;28;20035;-67
2023/03/03 08:08:15;;;;;;;22.85;7.45;;;;;;;-144.47;100.00;53074.56;5075263;28;20031;-69
2023/03/03 08:10:52;;;;;;;16.25;6.03;;;;;;;-144.47;100.00;53096.41;5054557;28;20674;-68
2023/03/03 08:13:20;;;;;;;14.68;5.70;;;;;;;-144.47;100.00;53076.56;5067025;28;20516;-70
2023/03/03 08:15:49;;;;;;;14.40;5.45;;;;;;;-144.47;100.00;53092.44;5053896;28;20035;-67
2023/03/03 08:18:27;;;;;;;16.75;4.90;;;;;;;-144.47;100.00;53080.53;5045115;28;20049;-68
2023/03/03 08:20:58;;;;;;;20.58;6.38;;;;;;;-144.47;100.00;53104.38;5071001;28;20550;-69
2023/03/03 08:23:24;;;;;;;19.55;4.80;;;;;;;-144.47;100.00;53062.66;5071565;28;20024;-69
2023/03/03 08:25:50;;;;;;;16.23;5.50;;;;;;;-144.47;100.00;53066.63;5070490;28;20028;-67
2023/03/03 08:28:17;;;;;;;13.43;5.05;;;;;;;-144.47;100.00;53076.56;5051599;28;20107;-68
2023/03/03 08:30:43;;;;;;;13.82;6.43;;;;;;;-144.47;99.15;53032.88;5069971;28;20098;-68
2023/03/03 08:33:08;;;;;;;11.07;4.82;;;;;;;-144.47;98.37;53086.50;5058160;28;20028;-68
2023/03/03 08:35:34;;;;;;;15.77;5.85;;;;;;;-144.47;97.96;53056.69;5061817;28;20398;-67
2023/03/03 08:37:59;;;;;;;12.25;5.03;;;;;;;-144.47;98.25;53046.75;5061479;28;20054;-68
2023/03/03 08:40:25;;;;;;;12.18;5.72;;;;;;;-144.47;96.91;53042.78;5058389;28;20081;-67
2023/03/03 08:42:50;;;;;;;13.60;4.57;;;;;;;-144.47;95.89;53074.56;5070087;28;20115;-69
2023/03/03 08:45:16;;;;;;;13.00;5.85;;;;;;;-144.47;95.58;53038.81;5071757;28;20055;-69
2023/03/03 08:47:42;;;;;;;13.77;5.55;;;;;;;-144.47;95.79;53080.53;5071535;28;20028;-69
2023/03/03 08:50:08;;;;;;;17.33;6.68;;;;;;;-144.47;96.42;53056.69;5069261;28;20769;-68
2023/03/03 08:52:33;;;;;;;15.13;6.00;;;;;;;-144.47;96.02;53072.59;5056073;28;20033;-67
2023/03/03 08:54:59;;;;;;;15.80;5.97;;;;;;;-144.47;96.37;53034.84;5070441;28;20048;-69
2023/03/03 08:57:24;;;;;;;23.42;6.72;;;;;;;-144.47;96.56;53034.84;5053975;28;20115;-67
2023/03/03 08:59:49;;;;;;;18.48;6.32;;;;;;;-144.47;96.29;53070.59;5064163;28;20394;-66
2023/03/03 09:02:16;;;;;;;16.27;6.72;;;;;;;-144.47;96.68;53054.72;5069776;28;20109;-69
2023/03/03 09:04:41;;;;;;;13.13;5.57;;;;;;;-144.47;95.82;53030.88;5062774;28;20059;-69
2023/03/03 09:07:07;;;;;;;14.40;6.60;;;;;;;-144.47;97.06;53046.75;5066166;28;20520;-68
2023/03/03 09:09:32;;;;;;;16.13;6.40;;;;;;;-144.47;96.56;53060.66;5045172;28;20127;-68
2023/03/03 09:12:08;;;;;;;21.60;6.72;;;;;;;-144.47;94.19;53074.56;5059301;28;20039;-67
2023/03/03 09:14:36;;;;;;;17.65;6.05;;;;;;;-144.47;94.19;53026.91;5067801;28;20543;-65
2023/03/03 09:17:25;;;;;;;14.00;6.57;;;;;;;-144.47;94.39;53009.03;5060882;28;20399;-67
2023/03/03 09:19:52;;;;;;;17.42;6.57;;;;;;;-144.47;94.70;53056.69;5072915;28;20386;-67
2023/03/03 09:22:23;;;;;;;14.25;5.95;;;;;;;-144.47;93.91;53054.72;5073236;28;20165;-67
2023/03/03 09:24:52;;;;;;;16.92;6.85;;;;;;;-144.47;94.64;53016.97;5069193;28;20041;-67
2023/03/03 09:27:38;;;;;;;15.73;5.70;;;;;;;-144.47;94.60;53038.81;5056205;28;20154;-67
2023/03/03 09:30:25;;;;;;;20.35;6.20;;;;;;;-144.47;93.90;53042.78;5048130;28;20055;-69
2023/03/03 09:32:56;;;;;;;12.05;5.82;;;;;;;-144.47;94.44;53016.97;5071221;28;20087;-67
2023/03/03 09:35:27;;;;;;;18.35;5.80;;;;;;;-144.47;95.51;53046.75;5064947;28;20044;-67
2023/03/03 09:37:53;;;;;;;11.82;5.63;;;;;;;-144.47;95.42;53040.81;5066573;28;20543;-68
2023/03/03 09:40:57;;;;;;;14.90;5.97;;;;;;;-144.47;94.82;53030.88;5063959;28;20032;-66
2023/03/03 09:43:37;;;;;;;16.20;5.65;;;;;;;-144.47;94.52;53070.59;5058235;28;20051;-67
2023/03/03 09:46:34;;;;;;;18.23;6.88;;;;;;;-144.47;95.56;53056.69;5067949;28;20024;-67
2023/03/03 09:49:08;;;;;;;21.80;7.45;;;;;;;-144.47;96.33;53036.84;5059555;28;20025;-69
2023/03/03 09:51:41;;;;;;;13.20;5.90;;;;;;;-144.47;95.82;53026.91;5059957;28;20111;-66
2023/03/03 09:54:28;;;;;;;19.55;6.88;;;;;;;-144.47;96.51;53018.97;5060493;28;20426;-69
2023/03/03 09:56:59;;;;;;;21.02;5.93;;;;;;;-144.47;96.62;53038.81;5059069;28;20112;-67
2023/03/03 09:59:59;;;;;;;16.25;6.53;;;;;;;-144.47;97.21;53052.72;5066061;28;20099;-68
2023/03/03 10:02:43;;;;;;;17.30;5.82;;;;;;;-144.47;98.01;53052.72;5044841;28;20060;-68
2023/03/03 10:05:18;;;;;;;17.85;6.40;;;;;;;-144.47;98.12;53048.75;5061898;28;20029;-67
2023/03/03 10:08:02;;;;;;;19.42;6.47;;;;;;;-144.47;97.73;53034.84;5045036;28;20024;-69
2023/03/03 10:10:34;;;;;;;21.73;6.70;;;;;;;-144.47;97.52;52993.13;5067238;28;20030;-69
2023/03/03 10:12:59;;;;;;;24.70;8.95;;;;;;;-144.47;95.04;53054.72;5064072;28;20036;-68
2023/03/03 10:16:16;;;;;;;20.73;6.85;;;;;;;-144.47;95.30;53016.97;5067798;28;20017;-66
2023/03/03 10:18:54;;;;;;;19.10;7.32;;;;;;;-144.47;94.69;53030.88;5000625;28;20040;-66
2023/03/03 10:21:36;;;;;;;20.20;6.47;;;;;;;-144.47;93.80;53018.97;5016493;28;20059;-70
2023/03/03 10:24:35;;;;;;;25.17;8.15;;;;;;;-144.47;92.66;53005.06;5058154;28;20047;-68
2023/03/03 10:27:09;;;;;;;24.48;6.90;;;;;;;-144.47;92.96;53018.97;5054218;28;20473;-68
2023/03/03 10:29:58;;;;;;;23.38;6.82;;;;;;;-144.47;93.33;53022.94;5067174;28;20508;-66
2023/03/03 10:32:36;;;;;;;23.15;6.53;;;;;;;-144.47;94.32;53013.00;5067077;28;20060;-68
2023/03/03 10:35:02;;;;;;;24.23;7.22;;;;;;;-144.47;94.47;53024.91;5066791;28;20082;-68
2023/03/03 10:37:41;;;;;;;21.20;7.53;;;;;;;-144.47;94.59;52995.13;5067763;28;20036;-70
2023/03/03 10:40:18;;;;;;;;;;;;;;;-144.47;93.11;52999.09;5069860;28;20612;-71
2023/03/03 10:43:20;;;;;;;20.35;7.03;;;;;;;-144.47;93.96;53038.81;5064754;28;19939;-68
2023/03/03 10:45:51;;;;;;;26.85;6.05;;;;;;;-144.47;93.23;53036.84;5054811;28;20033;-68
2023/03/03 10:48:17;;;;;;;19.38;6.65;;;;;;;-144.47;93.61;53011.00;5053855;28;20038;-68
2023/03/03 10:50:57;;;;;;;25.30;7.53;;;;;;;-144.47;94.95;53009.03;5064235;28;20033;-69
2023/03/03 10:53:32;;;;;;;17.92;6.40;;;;;;;-144.47;94.89;53011.00;5067611;28;20030;-69
2023/03/03 10:56:13;;;;;;;36.30;9.40;;;;;;;-144.47;93.79;53007.03;5067281;28;20021;-66
2023/03/03 10:59:00;;;;;;;24.20;7.03;;;;;;;-144.47;93.65;53020.94;5067028;28;20048;-66
2023/03/03 11:01:39;;;;;;;23.58;7.50;;;;;;;-144.47;94.11;53009.03;5056310;28;20441;-67
2023/03/03 11:04:22;;;;;;;22.45;6.80;;;;;;;-144.47;94.86;53020.94;5067099;28;20123;-66
2023/03/03 11:07:25;;;;;;;23.38;7.70;;;;;;;-144.47;95.39;52991.16;5063788;28;20122;-68
2023/03/03 11:10:18;;;;;;;43.67;11.25;;;;;;;-144.47;93.73;53007.03;5066510;28;20448;-66
2023/03/03 11:12:56;;;;;;;21.30;7.32;;;;;;;-144.47;92.83;53018.97;5051389;28;20035;-66
2023/03/03 11:15:24;;;;;;;20.17;7.22;;;;;;;-144.47;93.12;52979.22;5064525;28;20040;-67